sensor_id;sensor_type;location;lat;lon;timestamp;temperature;humidity
69626;DHT22;56847;51.984;5.088;2023-02-02T00:01:28;10.10;77.20
69626;DHT22;56847;51.984;5.088;2023-02-02T00:03:55;10.00;77.50
69626;DHT22;56847;51.984;5.088;2023-02-02T00:06:29;10.00;77.90
69626;DHT22;56847;51.984;5.088;2023-02-02T00:08:57;10.00;78.20
69626;DHT22;56847;51.984;5.088;2023-02-02T00:11:25;10.00;78.20
69626;DHT22;56847;51.984;5.088;2023-02-02T00:13:52;10.00;78.30
69626;DHT22;56847;51.984;5.088;2023-02-02T00:18:54;10.00;78.40
69626;DHT22;56847;51.984;5.088;2023-02-02T00:21:22;10.10;78.50
69626;DHT22;56847;51.984;5.088;2023-02-02T00:23:50;10.10;78.70
69626;DHT22;56847;51.984;5.088;2023-02-02T00:26:17;10.10;78.90
69626;DHT22;56847;51.984;5.088;2023-02-02T00:28:44;10.10;79.00
69626;DHT22;56847;51.984;5.088;2023-02-02T00:31:11;10.10;79.20
69626;DHT22;56847;51.984;5.088;2023-02-02T00:33:38;10.10;79.40
69626;DHT22;56847;51.984;5.088;2023-02-02T00:36:06;10.20;79.60
69626;DHT22;56847;51.984;5.088;2023-02-02T00:38:33;10.20;79.70
69626;DHT22;56847;51.984;5.088;2023-02-02T00:41:00;10.20;79.80
69626;DHT22;56847;51.984;5.088;2023-02-02T00:43:27;10.20;79.90
69626;DHT22;56847;51.984;5.088;2023-02-02T00:45:54;10.20;79.90
69626;DHT22;56847;51.984;5.088;2023-02-02T00:48:21;10.30;79.80
69626;DHT22;56847;51.984;5.088;2023-02-02T00:50:48;10.30;79.60
69626;DHT22;56847;51.984;5.088;2023-02-02T00:53:15;10.30;79.50
69626;DHT22;56847;51.984;5.088;2023-02-02T00:55:42;10.30;79.30
69626;DHT22;56847;51.984;5.088;2023-02-02T00:58:09;10.40;79.10
69626;DHT22;56847;51.984;5.088;2023-02-02T01:00:36;10.40;79.00
69626;DHT22;56847;51.984;5.088;2023-02-02T01:03:04;10.40;79.00
69626;DHT22;56847;51.984;5.088;2023-02-02T01:05:33;10.40;79.00
69626;DHT22;56847;51.984;5.088;2023-02-02T01:08:00;10.50;78.90
69626;DHT22;56847;51.984;5.088;2023-02-02T01:10:27;10.50;78.50
69626;DHT22;56847;51.984;5.088;2023-02-02T01:12:54;10.50;78.50
69626;DHT22;56847;51.984;5.088;2023-02-02T01:15:21;10.50;78.30
69626;DHT22;56847;51.984;5.088;2023-02-02T01:17:48;10.60;78.30
69626;DHT22;56847;51.984;5.088;2023-02-02T01:20:18;10.60;78.30
69626;DHT22;56847;51.984;5.088;2023-02-02T01:22:46;10.60;78.30
69626;DHT22;56847;51.984;5.088;2023-02-02T01:25:13;10.60;78.10
69626;DHT22;56847;51.984;5.088;2023-02-02T01:27:40;10.60;78.00
69626;DHT22;56847;51.984;5.088;2023-02-02T01:30:09;10.60;77.80
69626;DHT22;56847;51.984;5.088;2023-02-02T01:32:36;10.70;77.70
69626;DHT22;56847;51.984;5.088;2023-02-02T01:35:03;10.70;77.60
69626;DHT22;56847;51.984;5.088;2023-02-02T01:37:30;10.70;77.50
69626;DHT22;56847;51.984;5.088;2023-02-02T01:39:57;10.70;77.40
69626;DHT22;56847;51.984;5.088;2023-02-02T01:42:24;10.70;77.30
69626;DHT22;56847;51.984;5.088;2023-02-02T01:47:37;10.80;77.10
69626;DHT22;56847;51.984;5.088;2023-02-02T01:50:06;10.80;76.80
69626;DHT22;56847;51.984;5.088;2023-02-02T01:52:35;10.80;76.90
69626;DHT22;56847;51.984;5.088;2023-02-02T01:55:05;10.80;77.10
69626;DHT22;56847;51.984;5.088;2023-02-02T01:57:42;10.80;76.70
69626;DHT22;56847;51.984;5.088;2023-02-02T02:00:13;10.80;76.70
69626;DHT22;56847;51.984;5.088;2023-02-02T02:02:44;10.80;76.80
69626;DHT22;56847;51.984;5.088;2023-02-02T02:05:17;10.80;76.50
69626;DHT22;56847;51.984;5.088;2023-02-02T02:07:46;10.80;76.40
69626;DHT22;56847;51.984;5.088;2023-02-02T02:10:16;10.80;76.50
69626;DHT22;56847;51.984;5.088;2023-02-02T02:12:46;10.80;76.50
69626;DHT22;56847;51.984;5.088;2023-02-02T02:15:14;10.80;76.50
69626;DHT22;56847;51.984;5.088;2023-02-02T02:21:41;10.80;76.30
69626;DHT22;56847;51.984;5.088;2023-02-02T02:27:31;10.80;76.40
69626;DHT22;56847;51.984;5.088;2023-02-02T02:32:51;10.70;76.40
69626;DHT22;56847;51.984;5.088;2023-02-02T02:35:40;10.80;76.30
69626;DHT22;56847;51.984;5.088;2023-02-02T02:40:57;10.70;76.30
69626;DHT22;56847;51.984;5.088;2023-02-02T02:43:30;10.80;76.30
69626;DHT22;56847;51.984;5.088;2023-02-02T02:45:58;10.80;76.30
69626;DHT22;56847;51.984;5.088;2023-02-02T02:48:26;10.70;75.90
69626;DHT22;56847;51.984;5.088;2023-02-02T02:54:23;10.70;76.20
69626;DHT22;56847;51.984;5.088;2023-02-02T03:02:48;10.70;76.10
69626;DHT22;56847;51.984;5.088;2023-02-02T03:05:48;10.70;76.20
69626;DHT22;56847;51.984;5.088;2023-02-02T03:08:30;10.70;76.00
69626;DHT22;56847;51.984;5.088;2023-02-02T03:10:59;10.70;75.80
69626;DHT22;56847;51.984;5.088;2023-02-02T03:13:28;10.70;76.00
69626;DHT22;56847;51.984;5.088;2023-02-02T03:15:56;10.70;75.90
69626;DHT22;56847;51.984;5.088;2023-02-02T03:18:26;10.70;76.00
69626;DHT22;56847;51.984;5.088;2023-02-02T03:20:54;10.70;76.10
69626;DHT22;56847;51.984;5.088;2023-02-02T03:23:21;10.70;75.90
69626;DHT22;56847;51.984;5.088;2023-02-02T03:25:48;10.70;76.20
69626;DHT22;56847;51.984;5.088;2023-02-02T03:28:16;10.70;76.10
69626;DHT22;56847;51.984;5.088;2023-02-02T03:30:44;10.70;76.10
69626;DHT22;56847;51.984;5.088;2023-02-02T03:33:12;10.70;76.10
69626;DHT22;56847;51.984;5.088;2023-02-02T03:35:40;10.70;76.20
69626;DHT22;56847;51.984;5.088;2023-02-02T03:38:07;10.70;76.10
69626;DHT22;56847;51.984;5.088;2023-02-02T03:40:35;10.80;76.20
69626;DHT22;56847;51.984;5.088;2023-02-02T03:43:01;10.80;76.20
69626;DHT22;56847;51.984;5.088;2023-02-02T03:45:29;10.80;76.00
69626;DHT22;56847;51.984;5.088;2023-02-02T03:47:56;10.80;76.00
69626;DHT22;56847;51.984;5.088;2023-02-02T03:50:23;10.80;76.00
69626;DHT22;56847;51.984;5.088;2023-02-02T03:52:52;10.80;75.90
69626;DHT22;56847;51.984;5.088;2023-02-02T03:55:19;10.80;75.80
69626;DHT22;56847;51.984;5.088;2023-02-02T03:57:46;10.90;75.90
69626;DHT22;56847;51.984;5.088;2023-02-02T04:00:13;10.90;75.70
69626;DHT22;56847;51.984;5.088;2023-02-02T04:02:40;10.90;75.70
69626;DHT22;56847;51.984;5.088;2023-02-02T04:05:07;10.90;75.80
69626;DHT22;56847;51.984;5.088;2023-02-02T04:07:34;10.90;75.60
69626;DHT22;56847;51.984;5.088;2023-02-02T04:10:02;10.90;75.50
69626;DHT22;56847;51.984;5.088;2023-02-02T04:12:29;10.90;75.70
69626;DHT22;56847;51.984;5.088;2023-02-02T04:14:56;10.90;75.40
69626;DHT22;56847;51.984;5.088;2023-02-02T04:17:22;10.90;75.50
69626;DHT22;56847;51.984;5.088;2023-02-02T04:19:49;10.90;75.30
69626;DHT22;56847;51.984;5.088;2023-02-02T04:22:23;10.90;75.40
69626;DHT22;56847;51.984;5.088;2023-02-02T04:24:50;10.90;75.30
69626;DHT22;56847;51.984;5.088;2023-02-02T04:27:17;10.90;75.40
69626;DHT22;56847;51.984;5.088;2023-02-02T04:29:44;10.90;75.10
69626;DHT22;56847;51.984;5.088;2023-02-02T04:32:12;10.80;75.30
69626;DHT22;56847;51.984;5.088;2023-02-02T04:34:39;10.90;75.20
69626;DHT22;56847;51.984;5.088;2023-02-02T04:37:06;10.80;75.20
69626;DHT22;56847;51.984;5.088;2023-02-02T04:39:33;10.90;75.30
69626;DHT22;56847;51.984;5.088;2023-02-02T04:42:00;10.90;75.30
69626;DHT22;56847;51.984;5.088;2023-02-02T04:44:28;10.90;75.30
69626;DHT22;56847;51.984;5.088;2023-02-02T04:46:55;10.90;75.20
69626;DHT22;56847;51.984;5.088;2023-02-02T04:49:22;10.90;75.20
69626;DHT22;56847;51.984;5.088;2023-02-02T04:51:49;10.90;75.30
69626;DHT22;56847;51.984;5.088;2023-02-02T04:54:16;10.90;75.30
69626;DHT22;56847;51.984;5.088;2023-02-02T04:56:43;11.00;75.30
69626;DHT22;56847;51.984;5.088;2023-02-02T04:59:10;10.90;74.90
69626;DHT22;56847;51.984;5.088;2023-02-02T05:01:37;10.90;75.00
69626;DHT22;56847;51.984;5.088;2023-02-02T05:04:04;10.90;74.90
69626;DHT22;56847;51.984;5.088;2023-02-02T05:06:31;10.90;75.00
69626;DHT22;56847;51.984;5.088;2023-02-02T05:08:58;10.90;74.90
69626;DHT22;56847;51.984;5.088;2023-02-02T05:11:26;11.00;75.00
69626;DHT22;56847;51.984;5.088;2023-02-02T05:13:54;11.00;74.80
69626;DHT22;56847;51.984;5.088;2023-02-02T05:16:22;11.00;74.80
69626;DHT22;56847;51.984;5.088;2023-02-02T05:18:51;11.00;74.80
69626;DHT22;56847;51.984;5.088;2023-02-02T05:21:19;11.00;74.80
69626;DHT22;56847;51.984;5.088;2023-02-02T05:23:46;11.00;74.80
69626;DHT22;56847;51.984;5.088;2023-02-02T05:26:16;11.00;74.80
69626;DHT22;56847;51.984;5.088;2023-02-02T05:28:44;11.00;74.70
69626;DHT22;56847;51.984;5.088;2023-02-02T05:31:11;11.00;74.90
69626;DHT22;56847;51.984;5.088;2023-02-02T05:33:38;11.00;74.80
69626;DHT22;56847;51.984;5.088;2023-02-02T05:36:05;11.00;74.80
69626;DHT22;56847;51.984;5.088;2023-02-02T05:38:33;11.00;74.80
69626;DHT22;56847;51.984;5.088;2023-02-02T05:41:00;11.00;74.80
69626;DHT22;56847;51.984;5.088;2023-02-02T05:43:29;11.00;74.80
69626;DHT22;56847;51.984;5.088;2023-02-02T05:45:56;11.00;74.80
69626;DHT22;56847;51.984;5.088;2023-02-02T05:48:23;10.90;74.80
69626;DHT22;56847;51.984;5.088;2023-02-02T05:51:08;10.90;75.00
69626;DHT22;56847;51.984;5.088;2023-02-02T05:53:36;10.90;75.10
69626;DHT22;56847;51.984;5.088;2023-02-02T05:56:04;11.00;74.90
69626;DHT22;56847;51.984;5.088;2023-02-02T05:58:30;11.00;75.10
69626;DHT22;56847;51.984;5.088;2023-02-02T06:00:57;11.00;75.00
69626;DHT22;56847;51.984;5.088;2023-02-02T06:03:24;11.00;75.00
69626;DHT22;56847;51.984;5.088;2023-02-02T06:05:51;11.00;75.00
69626;DHT22;56847;51.984;5.088;2023-02-02T06:08:18;10.90;75.00
69626;DHT22;56847;51.984;5.088;2023-02-02T06:10:45;11.00;75.10
69626;DHT22;56847;51.984;5.088;2023-02-02T06:13:11;11.00;75.10
69626;DHT22;56847;51.984;5.088;2023-02-02T06:15:38;11.00;75.20
69626;DHT22;56847;51.984;5.088;2023-02-02T06:18:08;10.90;75.30
69626;DHT22;56847;51.984;5.088;2023-02-02T06:20:35;10.90;75.30
69626;DHT22;56847;51.984;5.088;2023-02-02T06:23:04;10.90;75.40
69626;DHT22;56847;51.984;5.088;2023-02-02T06:25:31;10.90;75.70
69626;DHT22;56847;51.984;5.088;2023-02-02T06:28:00;10.80;75.90
69626;DHT22;56847;51.984;5.088;2023-02-02T06:30:27;10.80;76.10
69626;DHT22;56847;51.984;5.088;2023-02-02T06:32:54;10.70;76.30
69626;DHT22;56847;51.984;5.088;2023-02-02T06:35:21;10.70;76.40
69626;DHT22;56847;51.984;5.088;2023-02-02T06:37:48;10.70;76.60
69626;DHT22;56847;51.984;5.088;2023-02-02T06:40:16;10.70;76.80
69626;DHT22;56847;51.984;5.088;2023-02-02T06:42:43;10.70;77.10
69626;DHT22;56847;51.984;5.088;2023-02-02T06:45:10;10.60;77.30
69626;DHT22;56847;51.984;5.088;2023-02-02T06:47:37;10.60;77.40
69626;DHT22;56847;51.984;5.088;2023-02-02T06:50:03;10.60;77.70
69626;DHT22;56847;51.984;5.088;2023-02-02T06:52:30;10.60;77.90
69626;DHT22;56847;51.984;5.088;2023-02-02T06:54:57;10.50;78.30
69626;DHT22;56847;51.984;5.088;2023-02-02T06:57:24;10.50;78.70
69626;DHT22;56847;51.984;5.088;2023-02-02T06:59:51;10.50;78.90
69626;DHT22;56847;51.984;5.088;2023-02-02T07:02:20;10.50;79.10
69626;DHT22;56847;51.984;5.088;2023-02-02T07:04:50;10.40;79.30
69626;DHT22;56847;51.984;5.088;2023-02-02T07:07:17;10.40;79.60
69626;DHT22;56847;51.984;5.088;2023-02-02T07:09:43;10.40;79.80
69626;DHT22;56847;51.984;5.088;2023-02-02T07:12:11;10.30;80.10
69626;DHT22;56847;51.984;5.088;2023-02-02T07:14:38;10.30;80.50
69626;DHT22;56847;51.984;5.088;2023-02-02T07:17:04;10.20;80.70
69626;DHT22;56847;51.984;5.088;2023-02-02T07:19:31;10.20;81.00
69626;DHT22;56847;51.984;5.088;2023-02-02T07:21:59;10.20;81.20
69626;DHT22;56847;51.984;5.088;2023-02-02T07:24:28;10.20;81.20
69626;DHT22;56847;51.984;5.088;2023-02-02T07:26:55;10.20;81.40
69626;DHT22;56847;51.984;5.088;2023-02-02T07:29:23;10.20;81.50
69626;DHT22;56847;51.984;5.088;2023-02-02T07:31:50;10.20;81.40
69626;DHT22;56847;51.984;5.088;2023-02-02T07:34:20;10.20;81.40
69626;DHT22;56847;51.984;5.088;2023-02-02T07:36:47;10.20;81.50
69626;DHT22;56847;51.984;5.088;2023-02-02T07:39:14;10.20;81.50
69626;DHT22;56847;51.984;5.088;2023-02-02T07:41:41;10.20;81.40
69626;DHT22;56847;51.984;5.088;2023-02-02T07:44:27;10.20;81.40
69626;DHT22;56847;51.984;5.088;2023-02-02T07:46:54;10.20;81.30
69626;DHT22;56847;51.984;5.088;2023-02-02T07:49:23;10.30;81.30
69626;DHT22;56847;51.984;5.088;2023-02-02T07:51:50;10.30;81.20
69626;DHT22;56847;51.984;5.088;2023-02-02T07:54:17;10.30;81.00
69626;DHT22;56847;51.984;5.088;2023-02-02T07:56:43;10.40;81.10
69626;DHT22;56847;51.984;5.088;2023-02-02T07:59:11;10.40;80.80
69626;DHT22;56847;51.984;5.088;2023-02-02T08:01:37;10.40;80.60
69626;DHT22;56847;51.984;5.088;2023-02-02T08:04:04;10.40;80.40
69626;DHT22;56847;51.984;5.088;2023-02-02T08:06:36;10.50;80.30
69626;DHT22;56847;51.984;5.088;2023-02-02T08:09:06;10.50;80.30
69626;DHT22;56847;51.984;5.088;2023-02-02T08:11:35;10.50;79.90
69626;DHT22;56847;51.984;5.088;2023-02-02T08:14:03;10.60;80.00
69626;DHT22;56847;51.984;5.088;2023-02-02T08:16:32;10.60;79.80
69626;DHT22;56847;51.984;5.088;2023-02-02T08:18:59;10.60;79.70
69626;DHT22;56847;51.984;5.088;2023-02-02T08:21:26;10.60;79.30
69626;DHT22;56847;51.984;5.088;2023-02-02T08:23:53;10.60;79.20
69626;DHT22;56847;51.984;5.088;2023-02-02T08:26:28;10.70;79.10
69626;DHT22;56847;51.984;5.088;2023-02-02T08:29:01;10.70;79.10
69626;DHT22;56847;51.984;5.088;2023-02-02T08:31:34;10.70;79.20
69626;DHT22;56847;51.984;5.088;2023-02-02T08:34:02;10.70;79.10
69626;DHT22;56847;51.984;5.088;2023-02-02T08:36:30;10.70;78.80
69626;DHT22;56847;51.984;5.088;2023-02-02T08:39:07;10.70;78.60
69626;DHT22;56847;51.984;5.088;2023-02-02T08:41:36;10.80;78.60
69626;DHT22;56847;51.984;5.088;2023-02-02T08:44:07;10.80;78.50
69626;DHT22;56847;51.984;5.088;2023-02-02T08:46:37;10.80;78.20
69626;DHT22;56847;51.984;5.088;2023-02-02T08:49:04;10.90;78.30
69626;DHT22;56847;51.984;5.088;2023-02-02T08:51:31;10.90;78.20
69626;DHT22;56847;51.984;5.088;2023-02-02T08:53:58;10.90;77.90
69626;DHT22;56847;51.984;5.088;2023-02-02T08:56:24;10.90;78.10
69626;DHT22;56847;51.984;5.088;2023-02-02T08:58:53;11.00;78.00
69626;DHT22;56847;51.984;5.088;2023-02-02T09:01:22;11.10;77.50
69626;DHT22;56847;51.984;5.088;2023-02-02T09:04:04;11.10;77.40
69626;DHT22;56847;51.984;5.088;2023-02-02T09:06:37;11.10;77.30
69626;DHT22;56847;51.984;5.088;2023-02-02T09:09:06;11.10;77.20
69626;DHT22;56847;51.984;5.088;2023-02-02T09:11:35;11.20;77.30
69626;DHT22;56847;51.984;5.088;2023-02-02T09:14:02;11.30;77.20
69626;DHT22;56847;51.984;5.088;2023-02-02T09:16:33;11.30;77.10
69626;DHT22;56847;51.984;5.088;2023-02-02T09:19:00;11.40;76.70
69626;DHT22;56847;51.984;5.088;2023-02-02T09:21:27;11.50;76.60
69626;DHT22;56847;51.984;5.088;2023-02-02T09:23:54;11.50;76.40
69626;DHT22;56847;51.984;5.088;2023-02-02T09:28:52;11.50;76.00
69626;DHT22;56847;51.984;5.088;2023-02-02T09:31:20;11.60;75.80
69626;DHT22;56847;51.984;5.088;2023-02-02T09:33:47;11.50;75.20
69626;DHT22;56847;51.984;5.088;2023-02-02T09:36:16;11.50;75.80
69626;DHT22;56847;51.984;5.088;2023-02-02T09:38:43;11.60;76.00
69626;DHT22;56847;51.984;5.088;2023-02-02T09:41:43;11.60;75.80
69626;DHT22;56847;51.984;5.088;2023-02-02T09:55:06;11.30;76.80
69626;DHT22;56847;51.984;5.088;2023-02-02T09:57:40;11.30;76.80
69626;DHT22;56847;51.984;5.088;2023-02-02T10:03:00;11.40;77.60
69626;DHT22;56847;51.984;5.088;2023-02-02T10:08:34;11.50;77.90
69626;DHT22;56847;51.984;5.088;2023-02-02T10:11:14;11.60;77.60
69626;DHT22;56847;51.984;5.088;2023-02-02T10:13:44;11.60;77.50
69626;DHT22;56847;51.984;5.088;2023-02-02T10:16:15;11.50;77.10
69626;DHT22;56847;51.984;5.088;2023-02-02T10:18:56;11.50;77.30
69626;DHT22;56847;51.984;5.088;2023-02-02T10:24:19;11.70;77.50
69626;DHT22;56847;51.984;5.088;2023-02-02T10:26:49;11.70;77.40
69626;DHT22;56847;51.984;5.088;2023-02-02T10:40:14;11.80;76.00
69626;DHT22;56847;51.984;5.088;2023-02-02T10:45:49;11.70;76.70
69626;DHT22;56847;51.984;5.088;2023-02-02T10:48:20;11.70;76.60
69626;DHT22;56847;51.984;5.088;2023-02-02T10:50:50;11.70;76.40
69626;DHT22;56847;51.984;5.088;2023-02-02T10:53:20;11.70;77.00
69626;DHT22;56847;51.984;5.088;2023-02-02T10:56:09;11.70;76.30
69626;DHT22;56847;51.984;5.088;2023-02-02T11:01:17;11.90;76.90
69626;DHT22;56847;51.984;5.088;2023-02-02T11:03:48;12.00;76.20
69626;DHT22;56847;51.984;5.088;2023-02-02T11:06:36;12.00;76.20
69626;DHT22;56847;51.984;5.088;2023-02-02T11:09:27;12.00;75.90
69626;DHT22;56847;51.984;5.088;2023-02-02T11:12:02;12.00;75.80
69626;DHT22;56847;51.984;5.088;2023-02-02T11:14:44;12.00;75.90
69626;DHT22;56847;51.984;5.088;2023-02-02T11:17:22;12.00;75.80
69626;DHT22;56847;51.984;5.088;2023-02-02T11:19:51;12.00;75.70
69626;DHT22;56847;51.984;5.088;2023-02-02T11:22:30;12.00;75.80
69626;DHT22;56847;51.984;5.088;2023-02-02T11:25:35;12.10;75.30
69626;DHT22;56847;51.984;5.088;2023-02-02T11:28:21;12.10;75.30
69626;DHT22;56847;51.984;5.088;2023-02-02T11:30:51;12.10;74.70
69626;DHT22;56847;51.984;5.088;2023-02-02T11:33:25;12.00;74.90
69626;DHT22;56847;51.984;5.088;2023-02-02T11:36:03;12.00;74.90
69626;DHT22;56847;51.984;5.088;2023-02-02T11:38:31;12.00;74.80
69626;DHT22;56847;51.984;5.088;2023-02-02T11:41:01;12.10;74.90
69626;DHT22;56847;51.984;5.088;2023-02-02T11:43:58;12.10;74.90
69626;DHT22;56847;51.984;5.088;2023-02-02T11:46:29;12.10;74.70
69626;DHT22;56847;51.984;5.088;2023-02-02T11:49:03;12.10;74.30
69626;DHT22;56847;51.984;5.088;2023-02-02T11:51:31;12.10;74.80
69626;DHT22;56847;51.984;5.088;2023-02-02T11:54:04;12.10;74.00
69626;DHT22;56847;51.984;5.088;2023-02-02T11:56:34;12.10;74.50
69626;DHT22;56847;51.984;5.088;2023-02-02T11:59:03;12.20;74.10
69626;DHT22;56847;51.984;5.088;2023-02-02T12:01:36;12.20;74.10
69626;DHT22;56847;51.984;5.088;2023-02-02T12:06:42;12.10;74.00
69626;DHT22;56847;51.984;5.088;2023-02-02T12:09:16;12.10;73.50
69626;DHT22;56847;51.984;5.088;2023-02-02T12:17:36;12.00;74.00
69626;DHT22;56847;51.984;5.088;2023-02-02T12:34:56;11.40;76.70
69626;DHT22;56847;51.984;5.088;2023-02-02T12:37:38;11.30;77.50
69626;DHT22;56847;51.984;5.088;2023-02-02T12:43:11;11.20;78.40
69626;DHT22;56847;51.984;5.088;2023-02-02T12:54:17;11.20;79.20
69626;DHT22;56847;51.984;5.088;2023-02-02T13:00:10;11.20;79.20
69626;DHT22;56847;51.984;5.088;2023-02-02T13:08:18;11.20;79.40
69626;DHT22;56847;51.984;5.088;2023-02-02T13:10:52;11.10;79.80
69626;DHT22;56847;51.984;5.088;2023-02-02T13:13:28;11.10;80.20
69626;DHT22;56847;51.984;5.088;2023-02-02T13:16:02;11.00;80.50
69626;DHT22;56847;51.984;5.088;2023-02-02T13:18:58;11.00;80.80
69626;DHT22;56847;51.984;5.088;2023-02-02T13:21:28;11.00;81.10
69626;DHT22;56847;51.984;5.088;2023-02-02T13:23:58;11.00;81.40
69626;DHT22;56847;51.984;5.088;2023-02-02T13:26:38;10.90;81.80
69626;DHT22;56847;51.984;5.088;2023-02-02T13:29:21;10.90;82.20
69626;DHT22;56847;51.984;5.088;2023-02-02T13:32:03;10.90;82.40
69626;DHT22;56847;51.984;5.088;2023-02-02T13:43:36;10.80;83.60
69626;DHT22;56847;51.984;5.088;2023-02-02T13:48:31;10.80;84.10
69626;DHT22;56847;51.984;5.088;2023-02-02T13:56:55;10.70;84.50
69626;DHT22;56847;51.984;5.088;2023-02-02T14:02:56;10.70;84.60
69626;DHT22;56847;51.984;5.088;2023-02-02T14:05:30;10.70;84.90
69626;DHT22;56847;51.984;5.088;2023-02-02T14:08:05;10.60;85.10
69626;DHT22;56847;51.984;5.088;2023-02-02T14:10:41;10.60;85.20
69626;DHT22;56847;51.984;5.088;2023-02-02T14:16:23;10.60;85.70
69626;DHT22;56847;51.984;5.088;2023-02-02T14:30:02;10.50;86.20
69626;DHT22;56847;51.984;5.088;2023-02-02T14:32:42;10.60;86.40
69626;DHT22;56847;51.984;5.088;2023-02-02T14:40:42;10.50;86.50
69626;DHT22;56847;51.984;5.088;2023-02-02T14:43:32;10.50;86.50
69626;DHT22;56847;51.984;5.088;2023-02-02T14:46:22;10.50;86.50
69626;DHT22;56847;51.984;5.088;2023-02-02T14:51:22;10.50;86.70
69626;DHT22;56847;51.984;5.088;2023-02-02T14:56:18;10.50;86.90
69626;DHT22;56847;51.984;5.088;2023-02-02T14:58:54;10.50;86.90
69626;DHT22;56847;51.984;5.088;2023-02-02T15:01:29;10.50;87.00
69626;DHT22;56847;51.984;5.088;2023-02-02T15:06:43;10.50;86.80
69626;DHT22;56847;51.984;5.088;2023-02-02T15:34:12;10.50;87.30
69626;DHT22;56847;51.984;5.088;2023-02-02T15:36:43;10.50;87.50
69626;DHT22;56847;51.984;5.088;2023-02-02T15:41:45;10.50;87.40
69626;DHT22;56847;51.984;5.088;2023-02-02T15:44:19;10.50;87.60
69626;DHT22;56847;51.984;5.088;2023-02-02T15:46:47;10.50;87.60
69626;DHT22;56847;51.984;5.088;2023-02-02T15:52:24;10.60;87.60
69626;DHT22;56847;51.984;5.088;2023-02-02T15:54:54;10.60;87.40
69626;DHT22;56847;51.984;5.088;2023-02-02T15:57:31;10.60;87.50
69626;DHT22;56847;51.984;5.088;2023-02-02T15:59:59;10.50;87.40
69626;DHT22;56847;51.984;5.088;2023-02-02T16:02:42;10.50;87.40
69626;DHT22;56847;51.984;5.088;2023-02-02T16:05:46;10.50;87.30
69626;DHT22;56847;51.984;5.088;2023-02-02T16:08:17;10.50;87.40
69626;DHT22;56847;51.984;5.088;2023-02-02T16:10:46;10.50;87.50
69626;DHT22;56847;51.984;5.088;2023-02-02T16:13:25;10.50;87.40
69626;DHT22;56847;51.984;5.088;2023-02-02T16:16:01;10.50;87.40
69626;DHT22;56847;51.984;5.088;2023-02-02T16:18:29;10.50;87.60
69626;DHT22;56847;51.984;5.088;2023-02-02T16:20:59;10.60;87.30
69626;DHT22;56847;51.984;5.088;2023-02-02T16:23:33;10.50;87.30
69626;DHT22;56847;51.984;5.088;2023-02-02T16:26:02;10.50;87.30
69626;DHT22;56847;51.984;5.088;2023-02-02T16:28:30;10.50;87.40
69626;DHT22;56847;51.984;5.088;2023-02-02T16:31:01;10.60;87.30
69626;DHT22;56847;51.984;5.088;2023-02-02T16:33:41;10.60;87.20
69626;DHT22;56847;51.984;5.088;2023-02-02T16:36:23;10.60;87.30
69626;DHT22;56847;51.984;5.088;2023-02-02T16:38:53;10.60;87.30
69626;DHT22;56847;51.984;5.088;2023-02-02T16:41:33;10.60;87.20
69626;DHT22;56847;51.984;5.088;2023-02-02T16:44:29;10.60;87.10
69626;DHT22;56847;51.984;5.088;2023-02-02T16:46:57;10.60;87.10
69626;DHT22;56847;51.984;5.088;2023-02-02T16:49:26;10.60;86.90
69626;DHT22;56847;51.984;5.088;2023-02-02T16:52:20;10.60;86.90
69626;DHT22;56847;51.984;5.088;2023-02-02T16:54:56;10.60;86.90
69626;DHT22;56847;51.984;5.088;2023-02-02T16:57:28;10.60;87.10
69626;DHT22;56847;51.984;5.088;2023-02-02T17:00:05;10.60;87.00
69626;DHT22;56847;51.984;5.088;2023-02-02T17:02:34;10.60;86.90
69626;DHT22;56847;51.984;5.088;2023-02-02T17:05:17;10.60;87.00
69626;DHT22;56847;51.984;5.088;2023-02-02T17:07:47;10.70;86.80
69626;DHT22;56847;51.984;5.088;2023-02-02T17:12:43;10.70;86.70
69626;DHT22;56847;51.984;5.088;2023-02-02T17:17:45;10.70;86.50
69626;DHT22;56847;51.984;5.088;2023-02-02T17:20:16;10.80;86.50
69626;DHT22;56847;51.984;5.088;2023-02-02T17:23:04;10.80;86.60
69626;DHT22;56847;51.984;5.088;2023-02-02T17:25:39;10.80;86.60
69626;DHT22;56847;51.984;5.088;2023-02-02T17:28:09;10.80;86.60
69626;DHT22;56847;51.984;5.088;2023-02-02T17:30:41;10.90;86.50
69626;DHT22;56847;51.984;5.088;2023-02-02T17:33:14;10.90;86.40
69626;DHT22;56847;51.984;5.088;2023-02-02T17:35:43;10.90;86.30
69626;DHT22;56847;51.984;5.088;2023-02-02T17:38:23;10.90;86.20
69626;DHT22;56847;51.984;5.088;2023-02-02T17:40:50;10.90;86.10
69626;DHT22;56847;51.984;5.088;2023-02-02T17:43:21;10.90;86.20
69626;DHT22;56847;51.984;5.088;2023-02-02T17:45:51;10.90;86.10
69626;DHT22;56847;51.984;5.088;2023-02-02T17:48:22;10.90;86.10
69626;DHT22;56847;51.984;5.088;2023-02-02T17:50:50;10.90;86.10
69626;DHT22;56847;51.984;5.088;2023-02-02T17:53:21;10.90;85.90
69626;DHT22;56847;51.984;5.088;2023-02-02T17:55:59;10.80;85.90
69626;DHT22;56847;51.984;5.088;2023-02-02T17:58:36;10.80;86.00
69626;DHT22;56847;51.984;5.088;2023-02-02T18:01:03;10.80;85.80
69626;DHT22;56847;51.984;5.088;2023-02-02T18:03:35;10.80;86.00
69626;DHT22;56847;51.984;5.088;2023-02-02T18:06:02;10.80;86.10
69626;DHT22;56847;51.984;5.088;2023-02-02T18:08:31;10.80;86.00
69626;DHT22;56847;51.984;5.088;2023-02-02T18:10:58;10.80;85.90
69626;DHT22;56847;51.984;5.088;2023-02-02T18:13:25;10.70;85.90
69626;DHT22;56847;51.984;5.088;2023-02-02T18:15:53;10.70;86.00
69626;DHT22;56847;51.984;5.088;2023-02-02T18:18:21;10.70;86.00
69626;DHT22;56847;51.984;5.088;2023-02-02T18:20:49;10.70;86.00
69626;DHT22;56847;51.984;5.088;2023-02-02T18:23:17;10.70;86.00
69626;DHT22;56847;51.984;5.088;2023-02-02T18:25:44;10.70;85.90
69626;DHT22;56847;51.984;5.088;2023-02-02T18:28:13;10.70;85.80
69626;DHT22;56847;51.984;5.088;2023-02-02T18:30:44;10.70;85.90
69626;DHT22;56847;51.984;5.088;2023-02-02T18:33:13;10.70;86.00
69626;DHT22;56847;51.984;5.088;2023-02-02T18:35:44;10.70;85.80
69626;DHT22;56847;51.984;5.088;2023-02-02T18:38:11;10.70;85.80
69626;DHT22;56847;51.984;5.088;2023-02-02T18:40:38;10.60;85.90
69626;DHT22;56847;51.984;5.088;2023-02-02T18:43:05;10.60;85.90
69626;DHT22;56847;51.984;5.088;2023-02-02T18:45:32;10.60;85.80
69626;DHT22;56847;51.984;5.088;2023-02-02T18:47:59;10.60;86.00
69626;DHT22;56847;51.984;5.088;2023-02-02T18:50:26;10.60;86.10
69626;DHT22;56847;51.984;5.088;2023-02-02T18:52:53;10.60;86.10
69626;DHT22;56847;51.984;5.088;2023-02-02T18:55:19;10.60;86.00
69626;DHT22;56847;51.984;5.088;2023-02-02T18:57:46;10.60;85.90
69626;DHT22;56847;51.984;5.088;2023-02-02T19:00:13;10.60;86.00
69626;DHT22;56847;51.984;5.088;2023-02-02T19:02:41;10.60;86.00
69626;DHT22;56847;51.984;5.088;2023-02-02T19:05:08;10.60;86.00